Weather at Long Banga Airport

Public forecast

Using degrees Celsius for public forecast. Weather courtesy of forecast.io.

Closest aviation weather report (METAR) to Long Banga Airport

Closest report is Miri Airport, 108.2 nm (200.4 km) NW.

2024/02/24 02:00 (retrieved 1 hour ago)

WBGR 240200Z 08004KT 9999 FEW015CB SCT016 29/26 Q1013

Closest aviation forecast (TAF) to Long Banga Airport

Forecast is more than 6 hours old.

Closest forecast is Nauru International Airport, 3,099.9 nm (5,740.9 km) E.

2024/02/23 18:00 (retrieved 9 hours ago)

TAF ANYN 231507Z 2318/2418 08008KT 9999 -RADZ SCT017 SCT130 T 29 30 30 31 Q 1009 1011 1011 1009